sensor_id;sensor_type;location;lat;lon;timestamp;P1;durP1;ratioP1;P2;durP2;ratioP2
71174;SDS011;58876;51.994;4.472;2022-10-16T00:01:45;2.95;;;2.95;;
71174;SDS011;58876;51.994;4.472;2022-10-16T00:04:11;3.48;;;3.48;;
71174;SDS011;58876;51.994;4.472;2022-10-16T00:06:37;4.53;;;4.53;;
71174;SDS011;58876;51.994;4.472;2022-10-16T00:09:04;5.55;;;5.55;;
71174;SDS011;58876;51.994;4.472;2022-10-16T00:11:31;4.15;;;4.15;;
71174;SDS011;58876;51.994;4.472;2022-10-16T00:14:02;4.72;;;4.72;;
71174;SDS011;58876;51.994;4.472;2022-10-16T00:16:30;4.15;;;4.15;;
71174;SDS011;58876;51.994;4.472;2022-10-16T00:18:57;2.82;;;2.82;;
71174;SDS011;58876;51.994;4.472;2022-10-16T00:21:24;3.66;;;3.66;;
71174;SDS011;58876;51.994;4.472;2022-10-16T00:23:52;2.93;;;2.93;;
71174;SDS011;58876;51.994;4.472;2022-10-16T00:26:20;4.60;;;4.60;;
71174;SDS011;58876;51.994;4.472;2022-10-16T00:28:46;4.96;;;4.96;;
71174;SDS011;58876;51.994;4.472;2022-10-16T00:31:13;7.96;;;7.96;;
71174;SDS011;58876;51.994;4.472;2022-10-16T00:33:39;9.92;;;9.92;;
71174;SDS011;58876;51.994;4.472;2022-10-16T00:36:06;10.12;;;10.12;;
71174;SDS011;58876;51.994;4.472;2022-10-16T00:38:34;8.03;;;8.03;;
71174;SDS011;58876;51.994;4.472;2022-10-16T00:41:00;11.94;;;11.94;;
71174;SDS011;58876;51.994;4.472;2022-10-16T00:43:32;15.82;;;15.82;;
71174;SDS011;58876;51.994;4.472;2022-10-16T00:46:24;23.97;;;23.97;;
71174;SDS011;58876;51.994;4.472;2022-10-16T00:49:09;16.74;;;16.74;;
71174;SDS011;58876;51.994;4.472;2022-10-16T00:51:38;22.95;;;22.95;;
71174;SDS011;58876;51.994;4.472;2022-10-16T00:54:08;20.02;;;20.02;;
71174;SDS011;58876;51.994;4.472;2022-10-16T00:56:36;17.62;;;17.62;;
71174;SDS011;58876;51.994;4.472;2022-10-16T00:59:06;9.42;;;9.42;;
71174;SDS011;58876;51.994;4.472;2022-10-16T01:01:43;6.46;;;6.46;;
71174;SDS011;58876;51.994;4.472;2022-10-16T01:04:08;6.84;;;6.84;;
71174;SDS011;58876;51.994;4.472;2022-10-16T01:09:57;13.25;;;13.25;;
71174;SDS011;58876;51.994;4.472;2022-10-16T01:12:46;3.87;;;3.87;;
71174;SDS011;58876;51.994;4.472;2022-10-16T01:15:29;3.70;;;3.70;;
71174;SDS011;58876;51.994;4.472;2022-10-16T01:18:06;2.42;;;2.42;;
71174;SDS011;58876;51.994;4.472;2022-10-16T01:20:37;2.18;;;2.18;;
71174;SDS011;58876;51.994;4.472;2022-10-16T01:28:34;2.62;;;2.62;;
71174;SDS011;58876;51.994;4.472;2022-10-16T01:31:06;2.58;;;2.58;;
71174;SDS011;58876;51.994;4.472;2022-10-16T01:33:40;2.10;;;2.10;;
71174;SDS011;58876;51.994;4.472;2022-10-16T01:36:15;1.88;;;1.88;;
71174;SDS011;58876;51.994;4.472;2022-10-16T01:38:46;1.75;;;1.75;;
71174;SDS011;58876;51.994;4.472;2022-10-16T01:41:21;1.99;;;1.99;;
71174;SDS011;58876;51.994;4.472;2022-10-16T01:44:05;1.93;;;1.93;;
71174;SDS011;58876;51.994;4.472;2022-10-16T01:46:32;1.82;;;1.82;;
71174;SDS011;58876;51.994;4.472;2022-10-16T01:49:02;1.76;;;1.76;;
71174;SDS011;58876;51.994;4.472;2022-10-16T01:51:29;1.80;;;1.80;;
71174;SDS011;58876;51.994;4.472;2022-10-16T01:53:56;2.10;;;2.10;;
71174;SDS011;58876;51.994;4.472;2022-10-16T01:56:25;2.33;;;2.33;;
71174;SDS011;58876;51.994;4.472;2022-10-16T01:58:55;2.37;;;2.37;;
71174;SDS011;58876;51.994;4.472;2022-10-16T02:01:26;2.21;;;2.21;;
71174;SDS011;58876;51.994;4.472;2022-10-16T02:03:57;2.15;;;2.15;;
71174;SDS011;58876;51.994;4.472;2022-10-16T02:06:38;2.52;;;2.52;;
71174;SDS011;58876;51.994;4.472;2022-10-16T02:09:03;2.37;;;2.37;;
71174;SDS011;58876;51.994;4.472;2022-10-16T02:11:29;2.50;;;2.50;;
71174;SDS011;58876;51.994;4.472;2022-10-16T02:13:55;2.56;;;2.56;;
71174;SDS011;58876;51.994;4.472;2022-10-16T02:16:32;2.62;;;2.62;;
71174;SDS011;58876;51.994;4.472;2022-10-16T02:19:04;2.41;;;2.41;;
71174;SDS011;58876;51.994;4.472;2022-10-16T02:22:19;2.76;;;2.76;;
71174;SDS011;58876;51.994;4.472;2022-10-16T02:24:37;2.51;;;2.51;;
71174;SDS011;58876;51.994;4.472;2022-10-16T02:27:32;3.64;;;3.64;;
71174;SDS011;58876;51.994;4.472;2022-10-16T02:30:11;2.90;;;2.90;;
71174;SDS011;58876;51.994;4.472;2022-10-16T02:32:42;2.46;;;2.46;;
71174;SDS011;58876;51.994;4.472;2022-10-16T02:35:11;2.65;;;2.65;;
71174;SDS011;58876;51.994;4.472;2022-10-16T02:37:39;2.43;;;2.43;;
71174;SDS011;58876;51.994;4.472;2022-10-16T02:40:07;2.36;;;2.36;;
71174;SDS011;58876;51.994;4.472;2022-10-16T02:42:34;2.32;;;2.32;;
71174;SDS011;58876;51.994;4.472;2022-10-16T02:45:02;2.32;;;2.32;;
71174;SDS011;58876;51.994;4.472;2022-10-16T02:47:28;2.13;;;2.13;;
71174;SDS011;58876;51.994;4.472;2022-10-16T02:49:55;2.03;;;2.03;;
71174;SDS011;58876;51.994;4.472;2022-10-16T02:52:20;2.16;;;2.16;;
71174;SDS011;58876;51.994;4.472;2022-10-16T02:54:46;1.88;;;1.88;;
71174;SDS011;58876;51.994;4.472;2022-10-16T02:57:11;1.97;;;1.97;;
71174;SDS011;58876;51.994;4.472;2022-10-16T02:59:37;2.40;;;2.40;;
71174;SDS011;58876;51.994;4.472;2022-10-16T03:02:02;2.15;;;2.15;;
71174;SDS011;58876;51.994;4.472;2022-10-16T03:04:28;1.98;;;1.98;;
71174;SDS011;58876;51.994;4.472;2022-10-16T03:06:53;1.86;;;1.86;;
71174;SDS011;58876;51.994;4.472;2022-10-16T03:09:20;1.82;;;1.82;;
71174;SDS011;58876;51.994;4.472;2022-10-16T03:11:45;1.95;;;1.95;;
71174;SDS011;58876;51.994;4.472;2022-10-16T03:14:11;2.18;;;2.18;;
71174;SDS011;58876;51.994;4.472;2022-10-16T03:16:36;2.14;;;2.14;;
71174;SDS011;58876;51.994;4.472;2022-10-16T03:19:02;2.02;;;2.02;;
71174;SDS011;58876;51.994;4.472;2022-10-16T03:21:28;2.75;;;2.75;;
71174;SDS011;58876;51.994;4.472;2022-10-16T03:23:53;3.85;;;3.85;;
71174;SDS011;58876;51.994;4.472;2022-10-16T03:26:19;2.16;;;2.16;;
71174;SDS011;58876;51.994;4.472;2022-10-16T03:28:44;2.15;;;2.15;;
71174;SDS011;58876;51.994;4.472;2022-10-16T03:31:09;2.10;;;2.10;;
71174;SDS011;58876;51.994;4.472;2022-10-16T03:33:35;2.86;;;2.86;;
71174;SDS011;58876;51.994;4.472;2022-10-16T03:36:00;2.63;;;2.63;;
71174;SDS011;58876;51.994;4.472;2022-10-16T03:38:26;2.94;;;2.94;;
71174;SDS011;58876;51.994;4.472;2022-10-16T03:40:52;3.24;;;3.24;;
71174;SDS011;58876;51.994;4.472;2022-10-16T03:43:17;2.58;;;2.58;;
71174;SDS011;58876;51.994;4.472;2022-10-16T03:45:43;4.12;;;4.12;;
71174;SDS011;58876;51.994;4.472;2022-10-16T03:48:08;3.05;;;3.05;;
71174;SDS011;58876;51.994;4.472;2022-10-16T03:50:34;1.82;;;1.82;;
71174;SDS011;58876;51.994;4.472;2022-10-16T03:52:59;1.90;;;1.90;;
71174;SDS011;58876;51.994;4.472;2022-10-16T03:55:25;1.86;;;1.86;;
71174;SDS011;58876;51.994;4.472;2022-10-16T03:57:50;1.86;;;1.86;;
71174;SDS011;58876;51.994;4.472;2022-10-16T04:00:15;1.87;;;1.87;;
71174;SDS011;58876;51.994;4.472;2022-10-16T04:02:42;1.95;;;1.95;;
71174;SDS011;58876;51.994;4.472;2022-10-16T04:05:07;1.98;;;1.98;;
71174;SDS011;58876;51.994;4.472;2022-10-16T04:07:33;1.61;;;1.61;;
71174;SDS011;58876;51.994;4.472;2022-10-16T04:09:58;1.73;;;1.73;;
71174;SDS011;58876;51.994;4.472;2022-10-16T04:12:24;1.83;;;1.83;;
71174;SDS011;58876;51.994;4.472;2022-10-16T04:14:50;2.08;;;2.08;;
71174;SDS011;58876;51.994;4.472;2022-10-16T04:17:16;1.88;;;1.88;;
71174;SDS011;58876;51.994;4.472;2022-10-16T04:19:41;2.00;;;2.00;;
71174;SDS011;58876;51.994;4.472;2022-10-16T04:22:07;2.07;;;2.07;;
71174;SDS011;58876;51.994;4.472;2022-10-16T04:24:32;2.03;;;2.03;;
71174;SDS011;58876;51.994;4.472;2022-10-16T04:26:58;1.98;;;1.98;;
71174;SDS011;58876;51.994;4.472;2022-10-16T04:29:23;7.57;;;7.57;;
71174;SDS011;58876;51.994;4.472;2022-10-16T04:31:48;3.74;;;3.74;;
71174;SDS011;58876;51.994;4.472;2022-10-16T04:34:14;2.00;;;2.00;;
71174;SDS011;58876;51.994;4.472;2022-10-16T04:36:39;2.01;;;2.01;;
71174;SDS011;58876;51.994;4.472;2022-10-16T04:39:05;1.97;;;1.97;;
71174;SDS011;58876;51.994;4.472;2022-10-16T04:41:30;1.99;;;1.99;;
71174;SDS011;58876;51.994;4.472;2022-10-16T04:43:56;2.23;;;2.23;;
71174;SDS011;58876;51.994;4.472;2022-10-16T04:46:21;2.07;;;2.07;;
71174;SDS011;58876;51.994;4.472;2022-10-16T04:48:49;3.15;;;3.15;;
71174;SDS011;58876;51.994;4.472;2022-10-16T04:51:14;2.26;;;2.26;;
71174;SDS011;58876;51.994;4.472;2022-10-16T04:53:39;2.03;;;2.03;;
71174;SDS011;58876;51.994;4.472;2022-10-16T04:56:05;1.98;;;1.98;;
71174;SDS011;58876;51.994;4.472;2022-10-16T04:58:30;1.98;;;1.98;;
71174;SDS011;58876;51.994;4.472;2022-10-16T05:00:56;2.13;;;2.13;;
71174;SDS011;58876;51.994;4.472;2022-10-16T05:03:21;2.06;;;2.06;;
71174;SDS011;58876;51.994;4.472;2022-10-16T05:05:47;3.90;;;3.90;;
71174;SDS011;58876;51.994;4.472;2022-10-16T05:08:13;2.16;;;2.16;;
71174;SDS011;58876;51.994;4.472;2022-10-16T05:10:40;1.81;;;1.81;;
71174;SDS011;58876;51.994;4.472;2022-10-16T05:13:08;2.65;;;2.65;;
71174;SDS011;58876;51.994;4.472;2022-10-16T05:15:33;2.51;;;2.51;;
71174;SDS011;58876;51.994;4.472;2022-10-16T05:17:59;1.91;;;1.91;;
71174;SDS011;58876;51.994;4.472;2022-10-16T05:20:24;1.94;;;1.94;;
71174;SDS011;58876;51.994;4.472;2022-10-16T05:22:50;2.04;;;2.04;;
71174;SDS011;58876;51.994;4.472;2022-10-16T05:25:15;2.00;;;2.00;;
71174;SDS011;58876;51.994;4.472;2022-10-16T05:27:41;6.37;;;6.37;;
71174;SDS011;58876;51.994;4.472;2022-10-16T05:30:07;1.99;;;1.99;;
71174;SDS011;58876;51.994;4.472;2022-10-16T05:32:33;2.22;;;2.22;;
71174;SDS011;58876;51.994;4.472;2022-10-16T05:34:59;4.47;;;4.47;;
71174;SDS011;58876;51.994;4.472;2022-10-16T05:37:25;5.36;;;5.36;;
71174;SDS011;58876;51.994;4.472;2022-10-16T05:39:52;3.69;;;3.69;;
71174;SDS011;58876;51.994;4.472;2022-10-16T05:42:17;2.37;;;2.37;;
71174;SDS011;58876;51.994;4.472;2022-10-16T05:44:43;2.27;;;2.27;;
71174;SDS011;58876;51.994;4.472;2022-10-16T05:47:09;2.32;;;2.32;;
71174;SDS011;58876;51.994;4.472;2022-10-16T05:49:37;2.46;;;2.46;;
71174;SDS011;58876;51.994;4.472;2022-10-16T05:52:03;2.20;;;2.20;;
71174;SDS011;58876;51.994;4.472;2022-10-16T05:54:28;1.99;;;1.99;;
71174;SDS011;58876;51.994;4.472;2022-10-16T05:56:54;2.16;;;2.16;;
71174;SDS011;58876;51.994;4.472;2022-10-16T05:59:19;2.31;;;2.31;;
71174;SDS011;58876;51.994;4.472;2022-10-16T06:01:45;2.15;;;2.15;;
71174;SDS011;58876;51.994;4.472;2022-10-16T06:04:10;2.30;;;2.30;;
71174;SDS011;58876;51.994;4.472;2022-10-16T06:06:35;2.16;;;2.16;;
71174;SDS011;58876;51.994;4.472;2022-10-16T06:09:02;2.16;;;2.16;;
71174;SDS011;58876;51.994;4.472;2022-10-16T06:11:29;2.02;;;2.02;;
71174;SDS011;58876;51.994;4.472;2022-10-16T06:13:56;2.34;;;2.34;;
71174;SDS011;58876;51.994;4.472;2022-10-16T06:16:25;2.16;;;2.16;;
71174;SDS011;58876;51.994;4.472;2022-10-16T06:18:51;2.09;;;2.09;;
71174;SDS011;58876;51.994;4.472;2022-10-16T06:21:19;2.25;;;2.25;;
71174;SDS011;58876;51.994;4.472;2022-10-16T06:23:46;2.33;;;2.33;;
71174;SDS011;58876;51.994;4.472;2022-10-16T06:26:13;2.05;;;2.05;;
71174;SDS011;58876;51.994;4.472;2022-10-16T06:28:41;1.98;;;1.98;;
71174;SDS011;58876;51.994;4.472;2022-10-16T06:31:08;2.04;;;2.04;;
71174;SDS011;58876;51.994;4.472;2022-10-16T06:33:35;1.74;;;1.74;;
71174;SDS011;58876;51.994;4.472;2022-10-16T06:36:06;1.89;;;1.89;;
71174;SDS011;58876;51.994;4.472;2022-10-16T06:38:36;2.05;;;2.05;;
71174;SDS011;58876;51.994;4.472;2022-10-16T06:41:02;1.81;;;1.81;;
71174;SDS011;58876;51.994;4.472;2022-10-16T06:43:29;1.84;;;1.84;;
71174;SDS011;58876;51.994;4.472;2022-10-16T06:46:00;2.43;;;2.43;;
71174;SDS011;58876;51.994;4.472;2022-10-16T06:48:28;2.53;;;2.53;;
71174;SDS011;58876;51.994;4.472;2022-10-16T06:51:04;2.04;;;2.04;;
71174;SDS011;58876;51.994;4.472;2022-10-16T06:53:33;1.91;;;1.91;;
71174;SDS011;58876;51.994;4.472;2022-10-16T06:56:07;1.92;;;1.92;;
71174;SDS011;58876;51.994;4.472;2022-10-16T06:58:36;2.33;;;2.33;;
71174;SDS011;58876;51.994;4.472;2022-10-16T07:01:02;2.00;;;2.00;;
71174;SDS011;58876;51.994;4.472;2022-10-16T07:03:28;2.04;;;2.04;;
71174;SDS011;58876;51.994;4.472;2022-10-16T07:05:54;2.20;;;2.20;;
71174;SDS011;58876;51.994;4.472;2022-10-16T07:08:19;2.03;;;2.03;;
71174;SDS011;58876;51.994;4.472;2022-10-16T07:10:44;2.28;;;2.28;;
71174;SDS011;58876;51.994;4.472;2022-10-16T07:13:10;2.54;;;2.54;;
71174;SDS011;58876;51.994;4.472;2022-10-16T07:15:38;2.23;;;2.23;;
71174;SDS011;58876;51.994;4.472;2022-10-16T07:18:04;2.19;;;2.19;;
71174;SDS011;58876;51.994;4.472;2022-10-16T07:20:29;3.94;;;3.94;;
71174;SDS011;58876;51.994;4.472;2022-10-16T07:22:55;2.16;;;2.16;;
71174;SDS011;58876;51.994;4.472;2022-10-16T07:25:20;11.19;;;11.19;;
71174;SDS011;58876;51.994;4.472;2022-10-16T07:27:45;28.47;;;28.47;;
71174;SDS011;58876;51.994;4.472;2022-10-16T07:30:12;42.48;;;42.48;;
71174;SDS011;58876;51.994;4.472;2022-10-16T07:32:37;62.77;;;62.77;;
71174;SDS011;58876;51.994;4.472;2022-10-16T07:35:03;44.78;;;44.78;;
71174;SDS011;58876;51.994;4.472;2022-10-16T07:37:29;43.93;;;43.93;;
71174;SDS011;58876;51.994;4.472;2022-10-16T07:39:54;39.86;;;39.86;;
71174;SDS011;58876;51.994;4.472;2022-10-16T07:42:20;41.39;;;41.39;;
71174;SDS011;58876;51.994;4.472;2022-10-16T07:44:45;33.65;;;33.65;;
71174;SDS011;58876;51.994;4.472;2022-10-16T07:47:11;33.58;;;33.58;;
71174;SDS011;58876;51.994;4.472;2022-10-16T07:49:37;25.12;;;25.12;;
71174;SDS011;58876;51.994;4.472;2022-10-16T07:52:03;27.54;;;27.54;;
71174;SDS011;58876;51.994;4.472;2022-10-16T07:54:28;20.25;;;20.25;;
71174;SDS011;58876;51.994;4.472;2022-10-16T07:56:53;14.05;;;14.05;;
71174;SDS011;58876;51.994;4.472;2022-10-16T07:59:19;6.91;;;6.91;;
71174;SDS011;58876;51.994;4.472;2022-10-16T08:01:45;9.29;;;9.29;;
71174;SDS011;58876;51.994;4.472;2022-10-16T08:04:10;8.63;;;8.63;;
71174;SDS011;58876;51.994;4.472;2022-10-16T08:06:36;9.58;;;9.58;;
71174;SDS011;58876;51.994;4.472;2022-10-16T08:09:03;13.99;;;13.99;;
71174;SDS011;58876;51.994;4.472;2022-10-16T08:11:29;5.26;;;5.26;;
71174;SDS011;58876;51.994;4.472;2022-10-16T08:13:55;3.22;;;3.22;;
71174;SDS011;58876;51.994;4.472;2022-10-16T08:16:20;2.90;;;2.90;;
71174;SDS011;58876;51.994;4.472;2022-10-16T08:18:46;5.71;;;5.71;;
71174;SDS011;58876;51.994;4.472;2022-10-16T08:21:15;9.12;;;9.12;;
71174;SDS011;58876;51.994;4.472;2022-10-16T08:23:46;11.09;;;11.09;;
71174;SDS011;58876;51.994;4.472;2022-10-16T08:26:12;12.81;;;12.81;;
71174;SDS011;58876;51.994;4.472;2022-10-16T08:28:38;15.31;;;15.31;;
71174;SDS011;58876;51.994;4.472;2022-10-16T08:31:07;16.70;;;16.70;;
71174;SDS011;58876;51.994;4.472;2022-10-16T08:33:35;33.76;;;33.76;;
71174;SDS011;58876;51.994;4.472;2022-10-16T08:36:02;36.06;;;36.06;;
71174;SDS011;58876;51.994;4.472;2022-10-16T08:38:29;47.42;;;47.42;;
71174;SDS011;58876;51.994;4.472;2022-10-16T08:41:02;49.92;;;49.92;;
71174;SDS011;58876;51.994;4.472;2022-10-16T08:46:58;62.05;;;62.05;;
71174;SDS011;58876;51.994;4.472;2022-10-16T08:49:36;63.86;;;63.86;;
71174;SDS011;58876;51.994;4.472;2022-10-16T08:52:10;65.11;;;65.11;;
71174;SDS011;58876;51.994;4.472;2022-10-16T08:54:41;76.99;;;76.99;;
71174;SDS011;58876;51.994;4.472;2022-10-16T08:57:21;84.26;;;84.26;;
71174;SDS011;58876;51.994;4.472;2022-10-16T08:59:49;77.72;;;77.72;;
71174;SDS011;58876;51.994;4.472;2022-10-16T09:05:09;88.08;;;88.08;;
71174;SDS011;58876;51.994;4.472;2022-10-16T09:07:50;114.26;;;114.26;;
71174;SDS011;58876;51.994;4.472;2022-10-16T09:18:43;136.08;;;136.08;;
71174;SDS011;58876;51.994;4.472;2022-10-16T09:21:26;85.76;;;85.76;;
71174;SDS011;58876;51.994;4.472;2022-10-16T09:23:59;95.06;;;95.06;;
71174;SDS011;58876;51.994;4.472;2022-10-16T09:26:38;78.23;;;78.23;;
71174;SDS011;58876;51.994;4.472;2022-10-16T09:29:03;73.21;;;73.21;;
71174;SDS011;58876;51.994;4.472;2022-10-16T09:31:29;82.27;;;82.27;;
71174;SDS011;58876;51.994;4.472;2022-10-16T09:33:57;39.89;;;39.89;;
71174;SDS011;58876;51.994;4.472;2022-10-16T09:36:25;80.83;;;80.83;;
71174;SDS011;58876;51.994;4.472;2022-10-16T09:39:07;96.97;;;96.97;;
71174;SDS011;58876;51.994;4.472;2022-10-16T09:41:34;76.46;;;76.46;;
71174;SDS011;58876;51.994;4.472;2022-10-16T09:44:03;45.39;;;45.39;;
71174;SDS011;58876;51.994;4.472;2022-10-16T09:46:39;45.29;;;45.29;;
71174;SDS011;58876;51.994;4.472;2022-10-16T09:49:16;49.88;;;49.88;;
71174;SDS011;58876;51.994;4.472;2022-10-16T09:51:48;60.91;;;60.91;;
71174;SDS011;58876;51.994;4.472;2022-10-16T09:54:21;66.38;;;66.38;;
71174;SDS011;58876;51.994;4.472;2022-10-16T09:56:47;37.84;;;37.84;;
71174;SDS011;58876;51.994;4.472;2022-10-16T09:59:19;19.10;;;19.10;;
71174;SDS011;58876;51.994;4.472;2022-10-16T10:01:56;8.23;;;8.23;;
71174;SDS011;58876;51.994;4.472;2022-10-16T10:04:36;12.72;;;12.72;;
71174;SDS011;58876;51.994;4.472;2022-10-16T10:07:24;26.92;;;26.92;;
71174;SDS011;58876;51.994;4.472;2022-10-16T10:09:53;13.35;;;13.35;;
71174;SDS011;58876;51.994;4.472;2022-10-16T10:12:24;4.30;;;4.30;;
71174;SDS011;58876;51.994;4.472;2022-10-16T10:14:52;4.12;;;4.12;;
71174;SDS011;58876;51.994;4.472;2022-10-16T10:17:23;24.22;;;24.22;;
71174;SDS011;58876;51.994;4.472;2022-10-16T10:22:46;9.19;;;9.19;;
71174;SDS011;58876;51.994;4.472;2022-10-16T10:27:49;3.12;;;3.12;;
71174;SDS011;58876;51.994;4.472;2022-10-16T10:30:41;2.52;;;2.52;;
71174;SDS011;58876;51.994;4.472;2022-10-16T10:44:27;2.93;;;2.53;;
71174;SDS011;58876;51.994;4.472;2022-10-16T10:47:20;3.37;;;2.62;;
71174;SDS011;58876;51.994;4.472;2022-10-16T10:50:04;4.30;;;3.13;;
71174;SDS011;58876;51.994;4.472;2022-10-16T10:55:20;4.52;;;3.20;;
71174;SDS011;58876;51.994;4.472;2022-10-16T11:00:45;4.57;;;3.23;;
71174;SDS011;58876;51.994;4.472;2022-10-16T11:06:17;4.70;;;3.25;;
71174;SDS011;58876;51.994;4.472;2022-10-16T11:08:58;5.01;;;3.43;;
71174;SDS011;58876;51.994;4.472;2022-10-16T11:11:31;4.29;;;3.02;;
71174;SDS011;58876;51.994;4.472;2022-10-16T11:16:41;4.14;;;2.83;;
71174;SDS011;58876;51.994;4.472;2022-10-16T11:22:00;4.14;;;2.80;;
71174;SDS011;58876;51.994;4.472;2022-10-16T11:28:02;4.31;;;2.91;;
71174;SDS011;58876;51.994;4.472;2022-10-16T11:38:35;4.61;;;3.06;;
71174;SDS011;58876;51.994;4.472;2022-10-16T11:41:15;5.24;;;3.43;;
71174;SDS011;58876;51.994;4.472;2022-10-16T11:43:55;4.39;;;2.86;;
71174;SDS011;58876;51.994;4.472;2022-10-16T11:46:29;5.01;;;3.18;;
71174;SDS011;58876;51.994;4.472;2022-10-16T11:49:03;4.88;;;3.05;;
71174;SDS011;58876;51.994;4.472;2022-10-16T11:51:42;4.91;;;3.10;;
71174;SDS011;58876;51.994;4.472;2022-10-16T11:54:20;5.24;;;3.28;;
71174;SDS011;58876;51.994;4.472;2022-10-16T11:57:03;5.15;;;3.22;;
71174;SDS011;58876;51.994;4.472;2022-10-16T11:59:51;5.00;;;3.15;;
71174;SDS011;58876;51.994;4.472;2022-10-16T12:02:57;5.21;;;3.32;;
71174;SDS011;58876;51.994;4.472;2022-10-16T12:08:32;4.23;;;2.77;;
71174;SDS011;58876;51.994;4.472;2022-10-16T12:11:23;5.06;;;3.24;;
71174;SDS011;58876;51.994;4.472;2022-10-16T12:17:03;6.09;;;3.89;;
71174;SDS011;58876;51.994;4.472;2022-10-16T12:19:56;4.86;;;3.14;;
71174;SDS011;58876;51.994;4.472;2022-10-16T12:22:24;4.93;;;3.16;;
71174;SDS011;58876;51.994;4.472;2022-10-16T12:24:55;5.62;;;3.62;;
71174;SDS011;58876;51.994;4.472;2022-10-16T12:29:54;4.24;;;2.97;;
71174;SDS011;58876;51.994;4.472;2022-10-16T12:34:56;4.78;;;3.12;;
71174;SDS011;58876;51.994;4.472;2022-10-16T12:37:25;4.96;;;3.25;;
71174;SDS011;58876;51.994;4.472;2022-10-16T12:42:55;5.32;;;3.39;;
71174;SDS011;58876;51.994;4.472;2022-10-16T12:45:24;5.18;;;3.28;;
71174;SDS011;58876;51.994;4.472;2022-10-16T12:47:56;5.93;;;3.92;;
71174;SDS011;58876;51.994;4.472;2022-10-16T12:50:23;4.25;;;2.80;;
71174;SDS011;58876;51.994;4.472;2022-10-16T12:52:56;5.91;;;3.89;;
71174;SDS011;58876;51.994;4.472;2022-10-16T12:55:22;4.90;;;3.37;;
71174;SDS011;58876;51.994;4.472;2022-10-16T13:00:44;4.16;;;2.71;;
71174;SDS011;58876;51.994;4.472;2022-10-16T13:03:55;5.16;;;3.33;;
71174;SDS011;58876;51.994;4.472;2022-10-16T13:09:36;5.39;;;3.46;;
71174;SDS011;58876;51.994;4.472;2022-10-16T13:12:30;5.17;;;3.27;;
71174;SDS011;58876;51.994;4.472;2022-10-16T13:18:13;4.89;;;3.17;;
71174;SDS011;58876;51.994;4.472;2022-10-16T13:21:00;4.55;;;2.91;;
71174;SDS011;58876;51.994;4.472;2022-10-16T13:26:40;4.70;;;3.05;;
71174;SDS011;58876;51.994;4.472;2022-10-16T13:29:18;4.24;;;2.80;;
71174;SDS011;58876;51.994;4.472;2022-10-16T13:31:45;3.70;;;2.44;;
71174;SDS011;58876;51.994;4.472;2022-10-16T13:34:17;4.62;;;3.07;;
71174;SDS011;58876;51.994;4.472;2022-10-16T13:36:47;4.84;;;3.15;;
71174;SDS011;58876;51.994;4.472;2022-10-16T13:39:20;4.62;;;3.03;;
71174;SDS011;58876;51.994;4.472;2022-10-16T13:42:05;5.73;;;3.73;;
71174;SDS011;58876;51.994;4.472;2022-10-16T13:44:43;4.59;;;3.01;;
71174;SDS011;58876;51.994;4.472;2022-10-16T13:47:14;5.33;;;3.46;;
71174;SDS011;58876;51.994;4.472;2022-10-16T13:49:42;4.93;;;3.19;;
71174;SDS011;58876;51.994;4.472;2022-10-16T13:52:15;5.12;;;3.32;;
71174;SDS011;58876;51.994;4.472;2022-10-16T13:54:43;4.94;;;3.22;;
71174;SDS011;58876;51.994;4.472;2022-10-16T13:57:12;5.23;;;3.38;;
71174;SDS011;58876;51.994;4.472;2022-10-16T13:59:39;5.11;;;3.28;;
71174;SDS011;58876;51.994;4.472;2022-10-16T14:02:17;5.38;;;3.44;;
71174;SDS011;58876;51.994;4.472;2022-10-16T14:04:49;5.12;;;3.29;;
71174;SDS011;58876;51.994;4.472;2022-10-16T14:07:19;5.01;;;3.27;;
71174;SDS011;58876;51.994;4.472;2022-10-16T14:09:51;5.35;;;3.50;;
71174;SDS011;58876;51.994;4.472;2022-10-16T14:12:18;5.03;;;3.36;;
71174;SDS011;58876;51.994;4.472;2022-10-16T14:14:45;4.79;;;3.26;;
71174;SDS011;58876;51.994;4.472;2022-10-16T14:17:14;5.05;;;3.47;;
71174;SDS011;58876;51.994;4.472;2022-10-16T14:19:47;5.73;;;4.05;;
71174;SDS011;58876;51.994;4.472;2022-10-16T14:22:35;4.63;;;3.48;;
71174;SDS011;58876;51.994;4.472;2022-10-16T14:27:44;4.45;;;3.20;;
71174;SDS011;58876;51.994;4.472;2022-10-16T14:30:12;4.26;;;3.08;;
71174;SDS011;58876;51.994;4.472;2022-10-16T14:32:40;4.50;;;3.23;;
71174;SDS011;58876;51.994;4.472;2022-10-16T14:35:27;4.81;;;3.40;;
71174;SDS011;58876;51.994;4.472;2022-10-16T14:38:02;4.45;;;3.17;;
71174;SDS011;58876;51.994;4.472;2022-10-16T14:40:31;5.19;;;3.83;;
71174;SDS011;58876;51.994;4.472;2022-10-16T14:42:59;4.17;;;3.22;;
71174;SDS011;58876;51.994;4.472;2022-10-16T14:45:27;3.66;;;2.87;;
71174;SDS011;58876;51.994;4.472;2022-10-16T14:48:06;3.73;;;2.85;;
71174;SDS011;58876;51.994;4.472;2022-10-16T14:50:42;4.71;;;3.51;;
71174;SDS011;58876;51.994;4.472;2022-10-16T14:53:09;4.05;;;3.06;;
71174;SDS011;58876;51.994;4.472;2022-10-16T14:55:37;4.15;;;3.10;;
71174;SDS011;58876;51.994;4.472;2022-10-16T14:58:03;3.94;;;2.89;;
71174;SDS011;58876;51.994;4.472;2022-10-16T15:00:29;4.46;;;3.19;;
71174;SDS011;58876;51.994;4.472;2022-10-16T15:02:55;4.59;;;3.21;;
71174;SDS011;58876;51.994;4.472;2022-10-16T15:05:24;5.43;;;3.74;;
71174;SDS011;58876;51.994;4.472;2022-10-16T15:07:51;4.98;;;3.39;;
71174;SDS011;58876;51.994;4.472;2022-10-16T15:10:20;5.09;;;3.60;;
71174;SDS011;58876;51.994;4.472;2022-10-16T15:12:47;5.13;;;3.78;;
71174;SDS011;58876;51.994;4.472;2022-10-16T15:17:48;3.80;;;3.07;;
71174;SDS011;58876;51.994;4.472;2022-10-16T15:20:14;4.21;;;3.29;;
71174;SDS011;58876;51.994;4.472;2022-10-16T15:22:39;3.67;;;2.88;;
71174;SDS011;58876;51.994;4.472;2022-10-16T15:25:10;4.09;;;3.18;;
71174;SDS011;58876;51.994;4.472;2022-10-16T15:27:58;3.74;;;2.87;;
71174;SDS011;58876;51.994;4.472;2022-10-16T15:30:25;3.65;;;2.80;;
71174;SDS011;58876;51.994;4.472;2022-10-16T15:32:52;3.79;;;2.89;;
71174;SDS011;58876;51.994;4.472;2022-10-16T15:35:18;4.05;;;2.93;;
71174;SDS011;58876;51.994;4.472;2022-10-16T15:37:43;5.19;;;3.70;;
71174;SDS011;58876;51.994;4.472;2022-10-16T15:40:10;4.93;;;3.53;;
71174;SDS011;58876;51.994;4.472;2022-10-16T15:42:35;4.71;;;3.32;;
71174;SDS011;58876;51.994;4.472;2022-10-16T15:45:01;4.62;;;3.35;;
71174;SDS011;58876;51.994;4.472;2022-10-16T15:47:27;4.50;;;3.28;;
71174;SDS011;58876;51.994;4.472;2022-10-16T15:49:52;4.50;;;3.30;;
71174;SDS011;58876;51.994;4.472;2022-10-16T15:52:17;4.52;;;3.37;;
71174;SDS011;58876;51.994;4.472;2022-10-16T15:54:43;4.47;;;3.43;;
71174;SDS011;58876;51.994;4.472;2022-10-16T15:57:08;3.93;;;3.04;;
71174;SDS011;58876;51.994;4.472;2022-10-16T15:59:34;4.23;;;3.21;;
71174;SDS011;58876;51.994;4.472;2022-10-16T16:01:59;4.55;;;3.42;;
71174;SDS011;58876;51.994;4.472;2022-10-16T16:04:25;4.74;;;3.59;;
71174;SDS011;58876;51.994;4.472;2022-10-16T16:06:50;4.13;;;3.19;;
71174;SDS011;58876;51.994;4.472;2022-10-16T16:09:16;4.37;;;3.39;;
71174;SDS011;58876;51.994;4.472;2022-10-16T16:11:41;4.63;;;3.74;;
71174;SDS011;58876;51.994;4.472;2022-10-16T16:14:07;4.13;;;3.50;;
71174;SDS011;58876;51.994;4.472;2022-10-16T16:16:38;4.19;;;3.72;;
71174;SDS011;58876;51.994;4.472;2022-10-16T16:19:04;4.10;;;3.74;;
71174;SDS011;58876;51.994;4.472;2022-10-16T16:21:31;4.58;;;4.21;;
71174;SDS011;58876;51.994;4.472;2022-10-16T16:23:58;4.39;;;4.03;;
71174;SDS011;58876;51.994;4.472;2022-10-16T16:26:25;4.68;;;4.26;;
71174;SDS011;58876;51.994;4.472;2022-10-16T16:28:53;4.93;;;4.51;;
71174;SDS011;58876;51.994;4.472;2022-10-16T16:31:20;5.27;;;4.99;;
71174;SDS011;58876;51.994;4.472;2022-10-16T16:33:49;5.50;;;5.30;;
71174;SDS011;58876;51.994;4.472;2022-10-16T16:36:16;5.55;;;5.34;;